SWA3863 KSAN-KSMF
Flight info
| Callsign | SWA3863 |
|---|---|
| Flight time | 1h 17m |
| Altitude | 36000 |
| Route | PADRZ2 EHF NURAY SUUTR4 |
| Aircraft | B738/M-SDE2E3FGHIRWXY/LB1 |
Departure
| Time | 2026-05-04 20:44 |
|---|---|
| Airport | San Diego International Airport (KSAN) |
Arrival
| Time | 2026-05-04 22:01 |
|---|---|
| Airport | Sacramento International Airport (KSMF) |
| Time | Latitude | Longitude | Altitude | Speed | Heading |
|---|---|---|---|---|---|
| 2026-05-04 20:08 | 32.73384 | -117.19811 | 19 ft | 0 kts | 207° |
| 2026-05-04 20:33 | 32.73391 | -117.19807 | 20 ft | 4 kts | 208° |
| 2026-05-04 20:33 | 32.73415 | -117.19792 | 22 ft | 4 kts | 205° |
| 2026-05-04 20:34 | 32.73437 | -117.19781 | 24 ft | 2 kts | 187° |
| 2026-05-04 20:34 | 32.73449 | -117.19783 | 24 ft | 2 kts | 129° |
| 2026-05-04 20:34 | 32.73454 | -117.19795 | 26 ft | 2 kts | 108° |
| 2026-05-04 20:34 | 32.73457 | -117.19805 | 26 ft | 0 kts | 105° |
| 2026-05-04 20:36 | 32.73454 | -117.19794 | 26 ft | 5 kts | 106° |
| 2026-05-04 20:36 | 32.73439 | -117.19731 | 25 ft | 10 kts | 106° |
| 2026-05-04 20:37 | 32.73416 | -117.19634 | 24 ft | 14 kts | 105° |
| 2026-05-04 20:37 | 32.73388 | -117.19514 | 25 ft | 16 kts | 105° |
| 2026-05-04 20:37 | 32.73359 | -117.19386 | 23 ft | 16 kts | 105° |
| 2026-05-04 20:37 | 32.73327 | -117.19264 | 21 ft | 15 kts | 107° |
| 2026-05-04 20:38 | 32.73298 | -117.19147 | 21 ft | 15 kts | 106° |
| 2026-05-04 20:38 | 32.73270 | -117.19034 | 21 ft | 14 kts | 106° |
| 2026-05-04 20:38 | 32.73244 | -117.18926 | 23 ft | 13 kts | 105° |
| 2026-05-04 20:38 | 32.73219 | -117.18823 | 23 ft | 13 kts | 106° |
| 2026-05-04 20:39 | 32.73195 | -117.18722 | 26 ft | 13 kts | 105° |
| 2026-05-04 20:39 | 32.73172 | -117.18623 | 22 ft | 12 kts | 106° |
| 2026-05-04 20:39 | 32.73148 | -117.18523 | 20 ft | 13 kts | 108° |
| 2026-05-04 20:39 | 32.73123 | -117.18422 | 20 ft | 13 kts | 106° |
| 2026-05-04 20:40 | 32.73099 | -117.18323 | 22 ft | 12 kts | 106° |
| 2026-05-04 20:40 | 32.73075 | -117.18227 | 19 ft | 12 kts | 107° |
| 2026-05-04 20:40 | 32.73051 | -117.18132 | 17 ft | 12 kts | 105° |
| 2026-05-04 20:40 | 32.73027 | -117.18035 | 16 ft | 12 kts | 106° |
| 2026-05-04 20:41 | 32.73004 | -117.17941 | 16 ft | 12 kts | 105° |
| 2026-05-04 20:41 | 32.72983 | -117.17849 | 17 ft | 11 kts | 105° |
| 2026-05-04 20:41 | 32.72962 | -117.17761 | 15 ft | 11 kts | 106° |
| 2026-05-04 20:41 | 32.72953 | -117.17675 | 16 ft | 7 kts | 79° |
| 2026-05-04 20:42 | 32.72955 | -117.17665 | 17 ft | 0 kts | 76° |
| 2026-05-04 20:42 | 32.72962 | -117.17639 | 17 ft | 6 kts | 69° |
| 2026-05-04 20:43 | 32.72995 | -117.17587 | 20 ft | 10 kts | 20° |
| 2026-05-04 20:43 | 32.73043 | -117.17655 | 18 ft | 15 kts | 274° |
| 2026-05-04 20:43 | 32.73074 | -117.17798 | 17 ft | 21 kts | 285° |
| 2026-05-04 20:43 | 32.73156 | -117.18132 | 19 ft | 80 kts | 286° |
| 2026-05-04 20:44 | 32.73377 | -117.19043 | 23 ft | 151 kts | 286° |
| 2026-05-04 20:44 | 32.73740 | -117.20399 | 470 ft | 185 kts | 290° |
| 2026-05-04 20:44 | 32.74284 | -117.21861 | 1258 ft | 202 kts | 298° |
| 2026-05-04 20:44 | 32.75072 | -117.23329 | 1911 ft | 218 kts | 302° |
| 2026-05-04 20:45 | 32.75929 | -117.24827 | 2871 ft | 216 kts | 302° |
| 2026-05-04 20:45 | 32.76761 | -117.26274 | 3976 ft | 211 kts | 303° |
| 2026-05-04 20:45 | 32.77614 | -117.27765 | 4548 ft | 231 kts | 303° |
| 2026-05-04 20:45 | 32.78605 | -117.29502 | 4348 ft | 283 kts | 303° |
| 2026-05-04 20:46 | 32.79839 | -117.31663 | 4042 ft | 332 kts | 304° |
| 2026-05-04 20:46 | 32.81139 | -117.33759 | 5795 ft | 308 kts | 307° |
| 2026-05-04 20:46 | 32.82406 | -117.35706 | 7317 ft | 289 kts | 306° |
| 2026-05-04 20:46 | 32.83610 | -117.37541 | 8636 ft | 275 kts | 305° |
| 2026-05-04 20:47 | 32.84774 | -117.39321 | 9701 ft | 273 kts | 303° |
| 2026-05-04 20:47 | 32.85944 | -117.41127 | 10372 ft | 282 kts | 303° |
| 2026-05-04 20:47 | 32.87191 | -117.43065 | 10560 ft | 307 kts | 303° |
| 2026-05-04 20:47 | 32.88536 | -117.45154 | 10842 ft | 327 kts | 303° |
| 2026-05-04 20:48 | 32.89932 | -117.47319 | 11481 ft | 333 kts | 303° |
| 2026-05-04 20:48 | 32.91347 | -117.49512 | 12257 ft | 335 kts | 303° |
| 2026-05-04 20:48 | 32.92750 | -117.51693 | 12991 ft | 338 kts | 302° |
| 2026-05-04 20:48 | 32.94184 | -117.53926 | 13729 ft | 342 kts | 302° |
| 2026-05-04 20:49 | 32.95633 | -117.56183 | 14391 ft | 345 kts | 302° |
| 2026-05-04 20:49 | 32.97095 | -117.58464 | 15070 ft | 347 kts | 301° |
| 2026-05-04 20:49 | 32.98563 | -117.60755 | 15770 ft | 349 kts | 301° |
| 2026-05-04 20:49 | 33.00040 | -117.63061 | 16454 ft | 351 kts | 301° |
| 2026-05-04 20:50 | 33.01526 | -117.65384 | 17116 ft | 354 kts | 300° |
| 2026-05-04 20:50 | 33.03025 | -117.67726 | 17768 ft | 357 kts | 300° |
| 2026-05-04 20:50 | 33.04536 | -117.70090 | 18411 ft | 360 kts | 300° |
| 2026-05-04 20:50 | 33.06043 | -117.72440 | 18962 ft | 363 kts | 301° |
| 2026-05-04 20:51 | 33.07825 | -117.74640 | 19502 ft | 376 kts | 310° |
| 2026-05-04 20:51 | 33.09843 | -117.76657 | 20062 ft | 380 kts | 311° |
| 2026-05-04 20:51 | 33.11902 | -117.78657 | 20597 ft | 383 kts | 311° |
| 2026-05-04 20:51 | 33.13967 | -117.80686 | 21112 ft | 386 kts | 311° |
| 2026-05-04 20:52 | 33.16025 | -117.82752 | 21637 ft | 388 kts | 310° |
| 2026-05-04 20:52 | 33.18090 | -117.84853 | 22159 ft | 391 kts | 309° |
| 2026-05-04 20:52 | 33.20165 | -117.86967 | 22664 ft | 394 kts | 309° |
| 2026-05-04 20:52 | 33.22286 | -117.89065 | 23171 ft | 398 kts | 310° |
| 2026-05-04 20:53 | 33.24411 | -117.91128 | 23661 ft | 400 kts | 310° |
| 2026-05-04 20:53 | 33.26584 | -117.93229 | 24060 ft | 403 kts | 310° |
| 2026-05-04 20:53 | 33.28772 | -117.95350 | 24431 ft | 407 kts | 309° |
| 2026-05-04 20:53 | 33.30971 | -117.97488 | 24799 ft | 410 kts | 309° |
| 2026-05-04 20:54 | 33.33186 | -117.99648 | 25182 ft | 412 kts | 308° |
| 2026-05-04 20:54 | 33.35417 | -118.01828 | 25567 ft | 415 kts | 308° |
| 2026-05-04 20:54 | 33.37652 | -118.04016 | 25939 ft | 417 kts | 308° |
| 2026-05-04 20:54 | 33.39910 | -118.06228 | 26294 ft | 420 kts | 308° |
| 2026-05-04 20:55 | 33.42174 | -118.08450 | 26649 ft | 422 kts | 307° |
| 2026-05-04 20:55 | 33.44421 | -118.10655 | 26993 ft | 425 kts | 307° |
| 2026-05-04 20:55 | 33.46709 | -118.12904 | 27356 ft | 428 kts | 307° |
| 2026-05-04 20:55 | 33.49013 | -118.15177 | 27699 ft | 430 kts | 307° |
| 2026-05-04 20:56 | 33.51331 | -118.17460 | 28034 ft | 432 kts | 306° |
| 2026-05-04 20:56 | 33.53662 | -118.19753 | 28358 ft | 435 kts | 306° |
| 2026-05-04 20:56 | 33.56006 | -118.22060 | 28685 ft | 437 kts | 306° |
| 2026-05-04 20:56 | 33.58494 | -118.24260 | 28971 ft | 459 kts | 316° |
| 2026-05-04 20:57 | 33.61421 | -118.25972 | 29248 ft | 473 kts | 322° |
| 2026-05-04 20:57 | 33.64453 | -118.27555 | 29544 ft | 477 kts | 322° |
| 2026-05-04 20:57 | 33.67469 | -118.29115 | 29798 ft | 480 kts | 322° |
| 2026-05-04 20:57 | 33.70527 | -118.30741 | 30058 ft | 481 kts | 321° |
| 2026-05-04 20:58 | 33.73571 | -118.32407 | 30321 ft | 481 kts | 321° |
| 2026-05-04 20:58 | 33.76610 | -118.34091 | 30566 ft | 482 kts | 321° |
| 2026-05-04 20:58 | 33.79699 | -118.35717 | 30815 ft | 486 kts | 322° |
| 2026-05-04 20:58 | 33.82828 | -118.37280 | 31049 ft | 489 kts | 323° |
| 2026-05-04 20:59 | 33.85979 | -118.38831 | 31342 ft | 490 kts | 323° |
| 2026-05-04 20:59 | 33.89143 | -118.40396 | 31630 ft | 491 kts | 322° |
| 2026-05-04 20:59 | 33.92290 | -118.41971 | 31928 ft | 491 kts | 322° |
| 2026-05-04 20:59 | 33.95400 | -118.43542 | 32206 ft | 491 kts | 322° |
| 2026-05-04 21:00 | 33.98535 | -118.45132 | 32482 ft | 492 kts | 322° |
| 2026-05-04 21:00 | 34.01860 | -118.46461 | 32723 ft | 518 kts | 335° |
| 2026-05-04 21:00 | 34.05456 | -118.47140 | 33022 ft | 527 kts | 340° |
| 2026-05-04 21:00 | 34.09113 | -118.47650 | 33317 ft | 530 kts | 341° |
| 2026-05-04 21:01 | 34.12778 | -118.48105 | 33542 ft | 531 kts | 341° |
| 2026-05-04 21:01 | 34.16458 | -118.48568 | 33797 ft | 531 kts | 341° |
| 2026-05-04 21:01 | 34.20121 | -118.49059 | 34086 ft | 529 kts | 340° |
| 2026-05-04 21:01 | 34.23727 | -118.49574 | 34401 ft | 526 kts | 340° |
| 2026-05-04 21:02 | 34.27334 | -118.50114 | 34787 ft | 521 kts | 340° |
| 2026-05-04 21:02 | 34.30924 | -118.50664 | 35210 ft | 516 kts | 340° |
| 2026-05-04 21:02 | 34.34458 | -118.51212 | 35691 ft | 509 kts | 340° |
| 2026-05-04 21:02 | 34.37950 | -118.51754 | 36068 ft | 505 kts | 340° |
| 2026-05-04 21:03 | 34.44936 | -118.52854 | 36043 ft | 505 kts | 341° |
| 2026-05-04 21:03 | 34.51896 | -118.53940 | 36014 ft | 503 kts | 341° |
| 2026-05-04 21:04 | 34.58782 | -118.55008 | 36006 ft | 502 kts | 341° |
| 2026-05-04 21:04 | 34.65717 | -118.56086 | 35994 ft | 502 kts | 341° |
| 2026-05-04 21:05 | 34.72629 | -118.57162 | 35987 ft | 500 kts | 341° |
| 2026-05-04 21:05 | 34.79507 | -118.58233 | 35991 ft | 497 kts | 342° |
| 2026-05-04 21:06 | 34.86363 | -118.59305 | 36013 ft | 496 kts | 342° |
| 2026-05-04 21:06 | 34.93155 | -118.60369 | 36032 ft | 495 kts | 342° |
| 2026-05-04 21:07 | 34.99915 | -118.61635 | 36003 ft | 479 kts | 331° |
| 2026-05-04 21:07 | 35.02868 | -118.63237 | 36071 ft | 454 kts | 316° |
| 2026-05-04 21:07 | 35.05332 | -118.65526 | 36062 ft | 442 kts | 308° |
| 2026-05-04 21:08 | 35.10047 | -118.70444 | 36040 ft | 448 kts | 308° |
| 2026-05-04 21:08 | 35.14799 | -118.75342 | 36030 ft | 452 kts | 309° |
| 2026-05-04 21:09 | 35.19644 | -118.80270 | 36016 ft | 454 kts | 310° |
| 2026-05-04 21:09 | 35.24507 | -118.85204 | 36021 ft | 454 kts | 310° |
| 2026-05-04 21:10 | 35.29361 | -118.90139 | 36025 ft | 453 kts | 310° |
| 2026-05-04 21:10 | 35.34163 | -118.95032 | 36027 ft | 452 kts | 310° |
| 2026-05-04 21:11 | 35.38980 | -118.99951 | 36031 ft | 450 kts | 311° |
| 2026-05-04 21:11 | 35.43787 | -119.04868 | 36032 ft | 450 kts | 311° |
| 2026-05-04 21:12 | 35.48582 | -119.09781 | 36027 ft | 449 kts | 311° |
| 2026-05-04 21:12 | 35.53379 | -119.14693 | 36041 ft | 448 kts | 311° |
| 2026-05-04 21:13 | 35.58135 | -119.19557 | 36048 ft | 448 kts | 311° |
| 2026-05-04 21:13 | 35.62930 | -119.24447 | 36058 ft | 448 kts | 311° |
| 2026-05-04 21:14 | 35.67913 | -119.29123 | 36046 ft | 461 kts | 322° |
| 2026-05-04 21:14 | 35.72957 | -119.31615 | 36069 ft | 474 kts | 332° |
| 2026-05-04 21:15 | 35.80227 | -119.34674 | 36064 ft | 476 kts | 332° |
| 2026-05-04 21:15 | 35.86479 | -119.37382 | 36060 ft | 477 kts | 332° |
| 2026-05-04 21:16 | 35.92735 | -119.40152 | 36055 ft | 478 kts | 331° |
| 2026-05-04 21:16 | 35.97938 | -119.42471 | 36054 ft | 479 kts | 331° |
| 2026-05-04 21:17 | 36.04222 | -119.45275 | 36061 ft | 481 kts | 331° |
| 2026-05-04 21:17 | 36.11539 | -119.48542 | 36068 ft | 482 kts | 331° |
| 2026-05-04 21:18 | 36.16828 | -119.50906 | 36074 ft | 482 kts | 331° |
| 2026-05-04 21:18 | 36.23090 | -119.53709 | 36067 ft | 482 kts | 331° |
| 2026-05-04 21:19 | 36.29400 | -119.56539 | 36070 ft | 482 kts | 331° |
| 2026-05-04 21:19 | 36.35705 | -119.59372 | 36068 ft | 482 kts | 331° |
| 2026-05-04 21:20 | 36.41996 | -119.62204 | 36065 ft | 481 kts | 332° |
| 2026-05-04 21:20 | 36.48243 | -119.65021 | 36065 ft | 480 kts | 332° |
| 2026-05-04 21:21 | 36.54515 | -119.67855 | 36066 ft | 479 kts | 332° |
| 2026-05-04 21:21 | 36.60711 | -119.70833 | 36056 ft | 469 kts | 323° |
| 2026-05-04 21:22 | 36.66200 | -119.75034 | 36081 ft | 461 kts | 318° |
| 2026-05-04 21:22 | 36.71497 | -119.79421 | 36080 ft | 460 kts | 318° |
| 2026-05-04 21:23 | 36.76865 | -119.83775 | 36065 ft | 461 kts | 319° |
| 2026-05-04 21:23 | 36.79575 | -119.85939 | 35716 ft | 463 kts | 320° |
| 2026-05-04 21:23 | 36.82282 | -119.88084 | 35367 ft | 457 kts | 320° |
| 2026-05-04 21:24 | 36.84960 | -119.90200 | 34970 ft | 453 kts | 320° |
| 2026-05-04 21:24 | 36.87611 | -119.92296 | 34578 ft | 450 kts | 320° |
| 2026-05-04 21:24 | 36.90243 | -119.94382 | 34169 ft | 446 kts | 320° |
| 2026-05-04 21:24 | 36.92858 | -119.96459 | 33710 ft | 444 kts | 320° |
| 2026-05-04 21:25 | 36.95451 | -119.98522 | 33282 ft | 440 kts | 321° |
| 2026-05-04 21:25 | 36.98012 | -120.00561 | 32872 ft | 436 kts | 321° |
| 2026-05-04 21:25 | 37.00528 | -120.02567 | 32474 ft | 432 kts | 322° |
| 2026-05-04 21:25 | 37.03049 | -120.04578 | 32085 ft | 428 kts | 323° |
| 2026-05-04 21:26 | 37.05549 | -120.06574 | 31699 ft | 424 kts | 323° |
| 2026-05-04 21:26 | 37.08022 | -120.08550 | 31319 ft | 421 kts | 324° |
| 2026-05-04 21:26 | 37.10480 | -120.10516 | 30941 ft | 417 kts | 324° |
| 2026-05-04 21:26 | 37.12918 | -120.12467 | 30562 ft | 414 kts | 325° |
| 2026-05-04 21:27 | 37.15334 | -120.14402 | 30191 ft | 411 kts | 326° |
| 2026-05-04 21:27 | 37.17730 | -120.16323 | 29746 ft | 408 kts | 326° |
| 2026-05-04 21:27 | 37.20081 | -120.18208 | 29324 ft | 404 kts | 326° |
| 2026-05-04 21:27 | 37.22434 | -120.20097 | 28922 ft | 400 kts | 327° |
| 2026-05-04 21:28 | 37.24766 | -120.21969 | 28528 ft | 396 kts | 327° |
| 2026-05-04 21:28 | 37.27072 | -120.23822 | 28125 ft | 392 kts | 328° |
| 2026-05-04 21:28 | 37.29375 | -120.25660 | 27679 ft | 390 kts | 329° |
| 2026-05-04 21:28 | 37.31677 | -120.27457 | 27196 ft | 390 kts | 329° |
| 2026-05-04 21:29 | 37.33984 | -120.29244 | 26709 ft | 389 kts | 330° |
| 2026-05-04 21:29 | 37.36287 | -120.31029 | 26251 ft | 388 kts | 330° |
| 2026-05-04 21:29 | 37.38577 | -120.32809 | 25780 ft | 388 kts | 330° |
| 2026-05-04 21:29 | 37.40876 | -120.34601 | 25281 ft | 387 kts | 331° |
| 2026-05-04 21:30 | 37.43133 | -120.36363 | 24829 ft | 387 kts | 331° |
| 2026-05-04 21:30 | 37.45420 | -120.38150 | 24361 ft | 387 kts | 332° |
| 2026-05-04 21:30 | 37.47691 | -120.39969 | 23880 ft | 388 kts | 328° |
| 2026-05-04 21:30 | 37.49845 | -120.42028 | 23363 ft | 390 kts | 324° |
| 2026-05-04 21:31 | 37.54018 | -120.46384 | 22316 ft | 388 kts | 324° |
| 2026-05-04 21:31 | 37.56108 | -120.48530 | 21843 ft | 386 kts | 324° |
| 2026-05-04 21:31 | 37.58199 | -120.50642 | 21360 ft | 384 kts | 324° |
| 2026-05-04 21:32 | 37.60258 | -120.52710 | 20905 ft | 382 kts | 324° |
| 2026-05-04 21:32 | 37.62324 | -120.54777 | 20532 ft | 378 kts | 324° |
| 2026-05-04 21:32 | 37.64372 | -120.56827 | 20158 ft | 374 kts | 324° |
| 2026-05-04 21:32 | 37.66399 | -120.58856 | 19791 ft | 370 kts | 324° |
| 2026-05-04 21:33 | 37.68401 | -120.60864 | 19436 ft | 366 kts | 324° |
| 2026-05-04 21:33 | 37.70391 | -120.62861 | 19079 ft | 363 kts | 324° |
| 2026-05-04 21:33 | 37.72357 | -120.64836 | 18726 ft | 360 kts | 324° |
| 2026-05-04 21:33 | 37.74309 | -120.66798 | 18371 ft | 357 kts | 323° |
| 2026-05-04 21:34 | 37.76222 | -120.68722 | 17985 ft | 355 kts | 323° |
| 2026-05-04 21:34 | 37.78144 | -120.70657 | 17598 ft | 351 kts | 323° |
| 2026-05-04 21:34 | 37.80044 | -120.72571 | 17240 ft | 348 kts | 323° |
| 2026-05-04 21:34 | 37.81928 | -120.74470 | 16889 ft | 344 kts | 323° |
| 2026-05-04 21:35 | 37.83791 | -120.76350 | 16548 ft | 341 kts | 323° |
| 2026-05-04 21:35 | 37.85635 | -120.78210 | 16211 ft | 338 kts | 323° |
| 2026-05-04 21:35 | 37.87464 | -120.80062 | 15879 ft | 335 kts | 323° |
| 2026-05-04 21:35 | 37.89269 | -120.81895 | 15543 ft | 332 kts | 322° |
| 2026-05-04 21:36 | 37.91064 | -120.83720 | 15231 ft | 329 kts | 322° |
| 2026-05-04 21:36 | 37.92838 | -120.85524 | 14908 ft | 326 kts | 322° |
| 2026-05-04 21:36 | 37.94577 | -120.87294 | 14590 ft | 324 kts | 322° |
| 2026-05-04 21:36 | 37.96326 | -120.89075 | 14267 ft | 321 kts | 322° |
| 2026-05-04 21:37 | 37.98061 | -120.90843 | 13961 ft | 319 kts | 322° |
| 2026-05-04 21:37 | 37.99784 | -120.92600 | 13617 ft | 317 kts | 322° |
| 2026-05-04 21:37 | 38.01498 | -120.94349 | 13266 ft | 315 kts | 322° |
| 2026-05-04 21:37 | 38.03196 | -120.96081 | 12940 ft | 312 kts | 322° |
| 2026-05-04 21:38 | 38.04880 | -120.97801 | 12628 ft | 310 kts | 322° |
| 2026-05-04 21:38 | 38.06549 | -120.99506 | 12317 ft | 307 kts | 322° |
| 2026-05-04 21:38 | 38.08135 | -121.01251 | 12002 ft | 305 kts | 315° |
| 2026-05-04 21:38 | 38.09539 | -121.03250 | 11693 ft | 303 kts | 310° |
| 2026-05-04 21:39 | 38.10873 | -121.05301 | 11378 ft | 301 kts | 310° |
| 2026-05-04 21:39 | 38.12199 | -121.07344 | 11072 ft | 298 kts | 310° |
| 2026-05-04 21:39 | 38.13527 | -121.09357 | 10778 ft | 296 kts | 311° |
| 2026-05-04 21:39 | 38.14858 | -121.11343 | 10484 ft | 294 kts | 311° |
| 2026-05-04 21:40 | 38.16187 | -121.13311 | 10190 ft | 292 kts | 311° |
| 2026-05-04 21:40 | 38.17508 | -121.15265 | 9899 ft | 291 kts | 311° |
| 2026-05-04 21:40 | 38.18804 | -121.17179 | 9587 ft | 289 kts | 311° |
| 2026-05-04 21:40 | 38.20111 | -121.19103 | 9281 ft | 286 kts | 312° |
| 2026-05-04 21:41 | 38.21408 | -121.21012 | 8990 ft | 284 kts | 312° |
| 2026-05-04 21:41 | 38.22726 | -121.22818 | 8878 ft | 275 kts | 315° |
| 2026-05-04 21:41 | 38.24065 | -121.24513 | 8762 ft | 268 kts | 316° |
| 2026-05-04 21:41 | 38.25392 | -121.26167 | 8667 ft | 267 kts | 317° |
| 2026-05-04 21:42 | 38.26718 | -121.27819 | 8577 ft | 268 kts | 316° |
| 2026-05-04 21:42 | 38.28056 | -121.29496 | 8485 ft | 272 kts | 316° |
| 2026-05-04 21:42 | 38.29406 | -121.31193 | 8385 ft | 273 kts | 316° |
| 2026-05-04 21:42 | 38.30737 | -121.32871 | 8288 ft | 272 kts | 316° |
| 2026-05-04 21:43 | 38.32081 | -121.34571 | 8188 ft | 272 kts | 316° |
| 2026-05-04 21:43 | 38.33423 | -121.36271 | 8085 ft | 272 kts | 316° |
| 2026-05-04 21:43 | 38.34761 | -121.37967 | 7972 ft | 272 kts | 316° |
| 2026-05-04 21:43 | 38.36100 | -121.39667 | 7871 ft | 271 kts | 316° |
| 2026-05-04 21:44 | 38.37437 | -121.41366 | 7765 ft | 271 kts | 316° |
| 2026-05-04 21:44 | 38.38767 | -121.43056 | 7660 ft | 270 kts | 316° |
| 2026-05-04 21:44 | 38.40095 | -121.44746 | 7559 ft | 269 kts | 316° |
| 2026-05-04 21:44 | 38.41401 | -121.46409 | 7461 ft | 268 kts | 316° |
| 2026-05-04 21:45 | 38.42717 | -121.48085 | 7358 ft | 267 kts | 316° |
| 2026-05-04 21:45 | 38.44028 | -121.49756 | 7254 ft | 266 kts | 316° |
| 2026-05-04 21:45 | 38.45336 | -121.51423 | 7160 ft | 265 kts | 316° |
| 2026-05-04 21:45 | 38.46637 | -121.53082 | 7064 ft | 264 kts | 315° |
| 2026-05-04 21:46 | 38.47962 | -121.54710 | 6900 ft | 266 kts | 320° |
| 2026-05-04 21:46 | 38.49410 | -121.56196 | 6716 ft | 268 kts | 323° |
| 2026-05-04 21:46 | 38.50894 | -121.57649 | 6521 ft | 269 kts | 323° |
| 2026-05-04 21:46 | 38.52370 | -121.59100 | 6299 ft | 265 kts | 322° |
| 2026-05-04 21:47 | 38.53792 | -121.60515 | 6079 ft | 260 kts | 322° |
| 2026-05-04 21:47 | 38.55201 | -121.61927 | 5885 ft | 257 kts | 321° |
| 2026-05-04 21:47 | 38.56606 | -121.63340 | 5721 ft | 259 kts | 321° |
| 2026-05-04 21:47 | 38.58044 | -121.64755 | 5513 ft | 262 kts | 326° |
| 2026-05-04 21:48 | 38.59721 | -121.65705 | 5316 ft | 265 kts | 341° |
| 2026-05-04 21:48 | 38.61490 | -121.66357 | 5109 ft | 266 kts | 344° |
| 2026-05-04 21:48 | 38.63281 | -121.66978 | 4915 ft | 268 kts | 343° |
| 2026-05-04 21:48 | 38.65081 | -121.67628 | 4694 ft | 270 kts | 343° |
| 2026-05-04 21:49 | 38.66889 | -121.68304 | 4462 ft | 271 kts | 343° |
| 2026-05-04 21:49 | 38.68690 | -121.68990 | 4229 ft | 269 kts | 342° |
| 2026-05-04 21:49 | 38.70461 | -121.69669 | 4063 ft | 262 kts | 342° |
| 2026-05-04 21:49 | 38.72205 | -121.70203 | 3998 ft | 253 kts | 354° |
| 2026-05-04 21:50 | 38.73896 | -121.70269 | 3992 ft | 241 kts | 359° |
| 2026-05-04 21:50 | 38.75535 | -121.70241 | 3981 ft | 230 kts | 1° |
| 2026-05-04 21:50 | 38.77130 | -121.70179 | 3987 ft | 228 kts | 1° |
| 2026-05-04 21:50 | 38.78713 | -121.70112 | 3993 ft | 227 kts | 1° |
| 2026-05-04 21:51 | 38.80277 | -121.70048 | 4006 ft | 219 kts | 1° |
| 2026-05-04 21:51 | 38.81757 | -121.69986 | 3998 ft | 205 kts | 1° |
| 2026-05-04 21:51 | 38.83124 | -121.69946 | 3977 ft | 189 kts | 0° |
| 2026-05-04 21:51 | 38.84428 | -121.69917 | 3986 ft | 187 kts | 0° |
| 2026-05-04 21:52 | 38.85711 | -121.69882 | 3993 ft | 187 kts | 0° |
| 2026-05-04 21:52 | 38.87019 | -121.69854 | 3994 ft | 188 kts | 0° |
| 2026-05-04 21:52 | 38.88330 | -121.69827 | 3990 ft | 189 kts | 0° |
| 2026-05-04 21:52 | 38.89643 | -121.69800 | 3993 ft | 189 kts | 0° |
| 2026-05-04 21:53 | 38.90956 | -121.69778 | 3999 ft | 189 kts | 0° |
| 2026-05-04 21:53 | 38.92270 | -121.69759 | 4000 ft | 189 kts | 360° |
| 2026-05-04 21:53 | 38.93589 | -121.69753 | 3995 ft | 189 kts | 359° |
| 2026-05-04 21:53 | 38.94849 | -121.69393 | 3988 ft | 188 kts | 34° |
| 2026-05-04 21:54 | 38.95640 | -121.68120 | 3998 ft | 185 kts | 75° |
| 2026-05-04 21:54 | 38.95646 | -121.66540 | 4029 ft | 180 kts | 103° |
| 2026-05-04 21:54 | 38.95390 | -121.64932 | 4018 ft | 186 kts | 103° |
| 2026-05-04 21:54 | 38.95133 | -121.63301 | 4007 ft | 186 kts | 103° |
| 2026-05-04 21:55 | 38.94866 | -121.61686 | 3994 ft | 184 kts | 109° |
| 2026-05-04 21:55 | 38.94114 | -121.60481 | 4005 ft | 173 kts | 159° |
| 2026-05-04 21:55 | 38.92903 | -121.60207 | 4016 ft | 182 kts | 175° |
| 2026-05-04 21:55 | 38.91648 | -121.60008 | 4009 ft | 181 kts | 174° |
| 2026-05-04 21:56 | 38.90422 | -121.59870 | 3907 ft | 173 kts | 178° |
| 2026-05-04 21:56 | 38.89241 | -121.59828 | 3697 ft | 167 kts | 180° |
| 2026-05-04 21:56 | 38.88112 | -121.59828 | 3481 ft | 162 kts | 181° |
| 2026-05-04 21:56 | 38.87010 | -121.59839 | 3272 ft | 153 kts | 181° |
| 2026-05-04 21:57 | 38.85976 | -121.59855 | 3065 ft | 146 kts | 182° |
| 2026-05-04 21:57 | 38.84961 | -121.59871 | 2878 ft | 146 kts | 182° |
| 2026-05-04 21:57 | 38.83946 | -121.59888 | 2719 ft | 144 kts | 181° |
| 2026-05-04 21:57 | 38.82936 | -121.59905 | 2496 ft | 144 kts | 181° |
| 2026-05-04 21:58 | 38.82009 | -121.59921 | 2303 ft | 145 kts | 181° |
| 2026-05-04 21:58 | 38.81008 | -121.59937 | 2117 ft | 145 kts | 181° |
| 2026-05-04 21:58 | 38.79998 | -121.59954 | 1912 ft | 145 kts | 181° |
| 2026-05-04 21:58 | 38.79007 | -121.59971 | 1735 ft | 143 kts | 181° |
| 2026-05-04 21:59 | 38.77995 | -121.59988 | 1531 ft | 147 kts | 181° |
| 2026-05-04 21:59 | 38.76975 | -121.60005 | 1321 ft | 146 kts | 181° |
| 2026-05-04 21:59 | 38.75964 | -121.60021 | 1123 ft | 145 kts | 181° |
| 2026-05-04 21:59 | 38.74950 | -121.60038 | 917 ft | 146 kts | 181° |
| 2026-05-04 22:00 | 38.73932 | -121.60055 | 708 ft | 147 kts | 180° |
| 2026-05-04 22:00 | 38.72909 | -121.60072 | 510 ft | 147 kts | 180° |
| 2026-05-04 22:00 | 38.71890 | -121.60089 | 299 ft | 146 kts | 179° |
| 2026-05-04 22:00 | 38.70888 | -121.60112 | 124 ft | 145 kts | 179° |
| 2026-05-04 22:01 | 38.69900 | -121.60126 | 25 ft | 132 kts | 181° |
| 2026-05-04 22:01 | 38.69122 | -121.60136 | 25 ft | 70 kts | 181° |
| 2026-05-04 22:01 | 38.68817 | -121.60141 | 26 ft | 18 kts | 181° |
| 2026-05-04 22:01 | 38.68693 | -121.60143 | 27 ft | 18 kts | 180° |
| 2026-05-04 22:02 | 38.68573 | -121.60145 | 25 ft | 17 kts | 180° |
| 2026-05-04 22:02 | 38.68458 | -121.60148 | 22 ft | 16 kts | 181° |
| 2026-05-04 22:02 | 38.68386 | -121.60061 | 22 ft | 16 kts | 94° |
| 2026-05-04 22:02 | 38.68389 | -121.59927 | 22 ft | 15 kts | 69° |
| 2026-05-04 22:03 | 38.68474 | -121.59913 | 24 ft | 14 kts | 328° |
| 2026-05-04 22:03 | 38.68563 | -121.59894 | 23 ft | 14 kts | 24° |
| 2026-05-04 22:03 | 38.68656 | -121.59881 | 22 ft | 13 kts | 1° |
| 2026-05-04 22:03 | 38.68746 | -121.59879 | 22 ft | 13 kts | 0° |
| 2026-05-04 22:04 | 38.68834 | -121.59878 | 22 ft | 12 kts | 0° |
| 2026-05-04 22:04 | 38.68919 | -121.59877 | 22 ft | 12 kts | 0° |
| 2026-05-04 22:04 | 38.69003 | -121.59876 | 22 ft | 12 kts | 0° |
| 2026-05-04 22:04 | 38.69084 | -121.59874 | 22 ft | 12 kts | 1° |
| 2026-05-04 22:05 | 38.69163 | -121.59872 | 22 ft | 11 kts | 1° |
| 2026-05-04 22:05 | 38.69239 | -121.59872 | 22 ft | 11 kts | 360° |
| 2026-05-04 22:05 | 38.69313 | -121.59871 | 23 ft | 11 kts | 1° |
| 2026-05-04 22:05 | 38.69386 | -121.59869 | 23 ft | 11 kts | 1° |
| 2026-05-04 22:06 | 38.69438 | -121.59822 | 23 ft | 11 kts | 86° |
| 2026-05-04 22:06 | 38.69463 | -121.59733 | 24 ft | 11 kts | 85° |
| 2026-05-04 22:06 | 38.69467 | -121.59640 | 22 ft | 10 kts | 73° |
| 2026-05-04 22:06 | 38.69486 | -121.59554 | 22 ft | 10 kts | 67° |
| 2026-05-04 22:07 | 38.69511 | -121.59511 | 22 ft | 0 kts | 46° |